sensor_id;sensor_type;location;lat;lon;timestamp;pressure;altitude;pressure_sealevel;temperature;humidity
64644;BME280;51056;50.330;7.914;2022-11-15T00:19:09;100246.19;;;7.14;96.00
64644;BME280;51056;50.330;7.914;2022-11-15T00:22:55;100249.72;;;7.13;96.25
64644;BME280;51056;50.330;7.914;2022-11-15T00:39:48;100238.53;;;7.11;96.48
64644;BME280;51056;50.330;7.914;2022-11-15T00:48:06;100246.78;;;7.21;96.36
64644;BME280;51056;50.330;7.914;2022-11-15T00:51:48;100250.38;;;7.18;96.36
64644;BME280;51056;50.330;7.914;2022-11-15T00:55:26;100243.28;;;7.22;96.62
64644;BME280;51056;50.330;7.914;2022-11-15T00:59:14;100244.38;;;7.16;96.89
64644;BME280;51056;50.330;7.914;2022-11-15T01:02:43;100237.88;;;7.06;97.27
64644;BME280;51056;50.330;7.914;2022-11-15T01:06:13;100243.22;;;7.03;97.28
64644;BME280;51056;50.330;7.914;2022-11-15T01:09:44;100249.31;;;7.22;96.48
64644;BME280;51056;50.330;7.914;2022-11-15T01:13:07;100245.88;;;7.02;98.03
64644;BME280;51056;50.330;7.914;2022-11-15T01:21:16;100237.16;;;7.23;97.63
64644;BME280;51056;50.330;7.914;2022-11-15T01:24:38;100235.41;;;7.23;97.72
64644;BME280;51056;50.330;7.914;2022-11-15T01:28:00;100227.59;;;7.23;97.65
64644;BME280;51056;50.330;7.914;2022-11-15T01:31:22;100226.84;;;7.21;98.21
64644;BME280;51056;50.330;7.914;2022-11-15T01:34:44;100223.91;;;7.29;97.85
64644;BME280;51056;50.330;7.914;2022-11-15T01:38:05;100222.00;;;7.33;97.37
64644;BME280;51056;50.330;7.914;2022-11-15T01:41:32;100217.38;;;7.39;97.45
64644;BME280;51056;50.330;7.914;2022-11-15T01:44:54;100217.19;;;7.44;97.11
64644;BME280;51056;50.330;7.914;2022-11-15T01:48:16;100216.88;;;7.31;97.48
64644;BME280;51056;50.330;7.914;2022-11-15T01:51:38;100205.91;;;7.25;98.25
64644;BME280;51056;50.330;7.914;2022-11-15T01:55:21;100207.72;;;7.22;98.66
64644;BME280;51056;50.330;7.914;2022-11-15T01:58:46;100202.56;;;7.21;98.71
64644;BME280;51056;50.330;7.914;2022-11-15T02:02:08;100192.81;;;7.26;98.12
64644;BME280;51056;50.330;7.914;2022-11-15T02:05:31;100199.97;;;7.21;98.78
64644;BME280;51056;50.330;7.914;2022-11-15T02:08:54;100190.31;;;7.25;98.23
64644;BME280;51056;50.330;7.914;2022-11-15T02:12:19;100194.97;;;7.16;98.89
64644;BME280;51056;50.330;7.914;2022-11-15T02:16:13;100193.16;;;7.18;99.16
64644;BME280;51056;50.330;7.914;2022-11-15T02:20:14;100191.28;;;7.22;99.07
64644;BME280;51056;50.330;7.914;2022-11-15T02:24:42;100183.34;;;7.25;99.11
64644;BME280;51056;50.330;7.914;2022-11-15T02:28:56;100187.91;;;7.39;97.95
64644;BME280;51056;50.330;7.914;2022-11-15T02:41:14;100162.03;;;7.36;99.13
64644;BME280;51056;50.330;7.914;2022-11-15T02:45:04;100150.81;;;7.35;99.23
64644;BME280;51056;50.330;7.914;2022-11-15T02:48:37;100150.41;;;7.44;99.11
64644;BME280;51056;50.330;7.914;2022-11-15T02:52:39;100151.66;;;7.55;98.70
64644;BME280;51056;50.330;7.914;2022-11-15T02:56:22;100144.22;;;7.47;99.00
64644;BME280;51056;50.330;7.914;2022-11-15T03:00:03;100136.88;;;7.55;98.48
64644;BME280;51056;50.330;7.914;2022-11-15T03:11:39;100134.84;;;7.43;99.57
64644;BME280;51056;50.330;7.914;2022-11-15T03:15:31;100133.09;;;7.43;99.69
64644;BME280;51056;50.330;7.914;2022-11-15T03:23:21;100132.78;;;7.50;100.00
64644;BME280;51056;50.330;7.914;2022-11-15T03:26:53;100140.69;;;7.48;100.00
64644;BME280;51056;50.330;7.914;2022-11-15T03:30:39;100129.72;;;7.60;100.00
64644;BME280;51056;50.330;7.914;2022-11-15T03:52:09;100116.22;;;7.33;100.00
64644;BME280;51056;50.330;7.914;2022-11-15T03:55:43;100125.16;;;7.28;100.00
64644;BME280;51056;50.330;7.914;2022-11-15T03:59:41;100134.50;;;7.32;100.00
64644;BME280;51056;50.330;7.914;2022-11-15T04:07:54;100129.56;;;7.26;100.00
64644;BME280;51056;50.330;7.914;2022-11-15T04:11:33;100132.72;;;7.13;100.00
64644;BME280;51056;50.330;7.914;2022-11-15T04:19:55;100142.84;;;7.19;100.00
64644;BME280;51056;50.330;7.914;2022-11-15T04:29:14;100130.63;;;7.21;100.00
64644;BME280;51056;50.330;7.914;2022-11-15T04:32:35;100131.25;;;7.27;100.00
64644;BME280;51056;50.330;7.914;2022-11-15T04:36:09;100132.22;;;7.24;99.86
64644;BME280;51056;50.330;7.914;2022-11-15T04:39:50;100117.19;;;7.12;99.64
64644;BME280;51056;50.330;7.914;2022-11-15T04:43:12;100118.59;;;7.19;99.40
64644;BME280;51056;50.330;7.914;2022-11-15T04:46:34;100120.78;;;7.09;98.99
64644;BME280;51056;50.330;7.914;2022-11-15T04:49:57;100126.38;;;7.00;99.66
64644;BME280;51056;50.330;7.914;2022-11-15T04:53:19;100109.84;;;7.01;99.36
64644;BME280;51056;50.330;7.914;2022-11-15T04:56:42;100111.63;;;7.01;98.58
64644;BME280;51056;50.330;7.914;2022-11-15T05:00:06;100120.25;;;7.01;98.55
64644;BME280;51056;50.330;7.914;2022-11-15T05:03:28;100110.25;;;6.92;98.55
64644;BME280;51056;50.330;7.914;2022-11-15T05:07:09;100114.47;;;6.94;98.52
64644;BME280;51056;50.330;7.914;2022-11-15T05:10:31;100106.44;;;6.80;98.09
64644;BME280;51056;50.330;7.914;2022-11-15T05:13:53;100116.72;;;6.83;98.11
64644;BME280;51056;50.330;7.914;2022-11-15T05:17:15;100110.41;;;6.68;97.39
64644;BME280;51056;50.330;7.914;2022-11-15T05:20:43;100113.00;;;6.68;97.23
64644;BME280;51056;50.330;7.914;2022-11-15T05:24:05;100121.38;;;6.75;96.56
64644;BME280;51056;50.330;7.914;2022-11-15T05:27:27;100128.22;;;6.78;96.53
64644;BME280;51056;50.330;7.914;2022-11-15T05:30:49;100129.88;;;6.79;97.16
64644;BME280;51056;50.330;7.914;2022-11-15T05:34:11;100128.53;;;6.70;97.59
64644;BME280;51056;50.330;7.914;2022-11-15T05:37:33;100124.50;;;6.63;97.79
64644;BME280;51056;50.330;7.914;2022-11-15T05:40:55;100127.41;;;6.75;97.65
64644;BME280;51056;50.330;7.914;2022-11-15T05:44:20;100125.88;;;6.71;96.57
64644;BME280;51056;50.330;7.914;2022-11-15T05:47:47;100129.66;;;6.64;96.35
64644;BME280;51056;50.330;7.914;2022-11-15T05:51:09;100130.22;;;6.71;96.20
64644;BME280;51056;50.330;7.914;2022-11-15T05:54:32;100124.25;;;6.69;96.08
64644;BME280;51056;50.330;7.914;2022-11-15T05:57:55;100128.72;;;6.65;95.73
64644;BME280;51056;50.330;7.914;2022-11-15T06:01:16;100127.22;;;6.60;96.19
64644;BME280;51056;50.330;7.914;2022-11-15T06:04:39;100131.19;;;6.68;95.33
64644;BME280;51056;50.330;7.914;2022-11-15T06:08:01;100136.78;;;6.80;95.72
64644;BME280;51056;50.330;7.914;2022-11-15T06:11:23;100131.84;;;6.73;96.17
64644;BME280;51056;50.330;7.914;2022-11-15T06:14:45;100124.38;;;6.66;96.21
64644;BME280;51056;50.330;7.914;2022-11-15T06:18:07;100127.06;;;6.64;95.85
64644;BME280;51056;50.330;7.914;2022-11-15T06:21:29;100130.41;;;6.66;96.11
64644;BME280;51056;50.330;7.914;2022-11-15T06:24:51;100141.34;;;6.54;96.74
64644;BME280;51056;50.330;7.914;2022-11-15T06:28:13;100145.78;;;6.50;96.83
64644;BME280;51056;50.330;7.914;2022-11-15T06:31:35;100138.16;;;6.68;95.76
64644;BME280;51056;50.330;7.914;2022-11-15T06:34:56;100155.28;;;6.72;95.72
64644;BME280;51056;50.330;7.914;2022-11-15T06:38:18;100162.69;;;6.81;95.39
64644;BME280;51056;50.330;7.914;2022-11-15T06:41:40;100152.56;;;6.75;95.40
64644;BME280;51056;50.330;7.914;2022-11-15T06:45:02;100150.56;;;6.82;95.47
64644;BME280;51056;50.330;7.914;2022-11-15T06:48:41;100155.88;;;6.79;95.66
64644;BME280;51056;50.330;7.914;2022-11-15T06:52:03;100167.31;;;6.74;97.01
64644;BME280;51056;50.330;7.914;2022-11-15T06:55:35;100162.28;;;6.70;98.26
64644;BME280;51056;50.330;7.914;2022-11-15T06:58:57;100163.94;;;6.93;97.79
64644;BME280;51056;50.330;7.914;2022-11-15T07:02:32;100163.56;;;7.02;97.12
64644;BME280;51056;50.330;7.914;2022-11-15T07:06:20;100151.44;;;7.01;97.61
64644;BME280;51056;50.330;7.914;2022-11-15T07:09:41;100151.97;;;7.09;97.34
64644;BME280;51056;50.330;7.914;2022-11-15T07:13:03;100156.50;;;7.04;97.24
64644;BME280;51056;50.330;7.914;2022-11-15T07:16:25;100156.94;;;7.14;97.70
64644;BME280;51056;50.330;7.914;2022-11-15T07:19:47;100157.03;;;7.12;97.94
64644;BME280;51056;50.330;7.914;2022-11-15T07:23:09;100155.41;;;7.10;97.66
64644;BME280;51056;50.330;7.914;2022-11-15T07:26:31;100152.84;;;7.08;98.19
64644;BME280;51056;50.330;7.914;2022-11-15T07:29:54;100154.16;;;7.18;97.42
64644;BME280;51056;50.330;7.914;2022-11-15T07:33:16;100153.75;;;7.28;97.54
64644;BME280;51056;50.330;7.914;2022-11-15T07:36:43;100151.03;;;7.10;98.50
64644;BME280;51056;50.330;7.914;2022-11-15T07:40:05;100154.31;;;7.15;98.73
64644;BME280;51056;50.330;7.914;2022-11-15T07:43:28;100151.22;;;7.26;99.08
64644;BME280;51056;50.330;7.914;2022-11-15T07:46:51;100159.94;;;7.25;98.87
64644;BME280;51056;50.330;7.914;2022-11-15T07:50:13;100154.47;;;7.31;99.37
64644;BME280;51056;50.330;7.914;2022-11-15T07:53:35;100162.63;;;7.42;98.47
64644;BME280;51056;50.330;7.914;2022-11-15T07:56:56;100151.66;;;7.55;97.49
64644;BME280;51056;50.330;7.914;2022-11-15T08:00:19;100164.44;;;7.59;98.41
64644;BME280;51056;50.330;7.914;2022-11-15T08:03:41;100157.84;;;7.52;98.84
64644;BME280;51056;50.330;7.914;2022-11-15T08:07:28;100164.59;;;7.37;99.70
64644;BME280;51056;50.330;7.914;2022-11-15T08:10:54;100151.78;;;7.33;100.00
64644;BME280;51056;50.330;7.914;2022-11-15T08:15:10;100147.22;;;7.76;100.00
64644;BME280;51056;50.330;7.914;2022-11-15T08:18:24;100139.97;;;7.82;99.28
64644;BME280;51056;50.330;7.914;2022-11-15T08:21:46;100141.81;;;7.80;99.53
64644;BME280;51056;50.330;7.914;2022-11-15T08:25:08;100131.75;;;7.91;98.66
64644;BME280;51056;50.330;7.914;2022-11-15T08:28:31;100139.81;;;8.04;99.03
64644;BME280;51056;50.330;7.914;2022-11-15T08:31:55;100136.13;;;8.08;99.10
64644;BME280;51056;50.330;7.914;2022-11-15T08:35:19;100125.44;;;8.14;99.27
64644;BME280;51056;50.330;7.914;2022-11-15T08:38:41;100131.47;;;8.15;98.74
64644;BME280;51056;50.330;7.914;2022-11-15T08:42:03;100133.97;;;8.16;99.93
64644;BME280;51056;50.330;7.914;2022-11-15T08:45:26;100124.66;;;8.12;100.00
64644;BME280;51056;50.330;7.914;2022-11-15T08:48:47;100125.44;;;8.14;100.00
64644;BME280;51056;50.330;7.914;2022-11-15T08:52:10;100116.25;;;8.25;100.00
64644;BME280;51056;50.330;7.914;2022-11-15T08:55:31;100117.31;;;8.21;100.00
64644;BME280;51056;50.330;7.914;2022-11-15T08:58:53;100122.22;;;8.27;100.00
64644;BME280;51056;50.330;7.914;2022-11-15T09:02:16;100122.06;;;8.30;100.00
64644;BME280;51056;50.330;7.914;2022-11-15T09:05:38;100116.63;;;8.34;100.00
64644;BME280;51056;50.330;7.914;2022-11-15T09:09:01;100117.50;;;8.52;100.00
64644;BME280;51056;50.330;7.914;2022-11-15T09:12:24;100114.03;;;8.52;100.00
64644;BME280;51056;50.330;7.914;2022-11-15T09:15:46;100115.44;;;8.42;100.00
64644;BME280;51056;50.330;7.914;2022-11-15T09:19:08;100108.81;;;8.52;100.00
64644;BME280;51056;50.330;7.914;2022-11-15T09:22:29;100107.38;;;8.64;100.00
64644;BME280;51056;50.330;7.914;2022-11-15T09:26:02;100112.44;;;8.67;100.00
64644;BME280;51056;50.330;7.914;2022-11-15T09:29:27;100102.16;;;8.81;100.00
64644;BME280;51056;50.330;7.914;2022-11-15T09:32:49;100095.75;;;8.87;100.00
64644;BME280;51056;50.330;7.914;2022-11-15T09:36:11;100107.31;;;8.98;100.00
64644;BME280;51056;50.330;7.914;2022-11-15T09:39:36;100107.00;;;9.04;100.00
64644;BME280;51056;50.330;7.914;2022-11-15T09:50:34;100098.72;;;8.96;100.00
64644;BME280;51056;50.330;7.914;2022-11-15T09:53:49;100098.94;;;9.09;100.00
64644;BME280;51056;50.330;7.914;2022-11-15T10:00:33;100093.25;;;9.34;100.00
64644;BME280;51056;50.330;7.914;2022-11-15T10:03:40;100085.03;;;9.42;100.00
64644;BME280;51056;50.330;7.914;2022-11-15T10:06:52;100080.81;;;9.39;100.00
64644;BME280;51056;50.330;7.914;2022-11-15T10:10:10;100074.91;;;9.36;100.00
64644;BME280;51056;50.330;7.914;2022-11-15T10:13:22;100081.22;;;9.47;100.00
64644;BME280;51056;50.330;7.914;2022-11-15T10:23:21;100060.25;;;9.65;100.00
64644;BME280;51056;50.330;7.914;2022-11-15T10:26:26;100060.09;;;9.68;100.00
64644;BME280;51056;50.330;7.914;2022-11-15T10:29:30;100052.13;;;9.85;100.00
64644;BME280;51056;50.330;7.914;2022-11-15T10:32:35;100044.88;;;9.90;100.00
64644;BME280;51056;50.330;7.914;2022-11-15T10:35:39;100045.22;;;9.84;100.00
64644;BME280;51056;50.330;7.914;2022-11-15T10:41:57;100026.44;;;9.93;100.00
64644;BME280;51056;50.330;7.914;2022-11-15T10:45:01;100010.41;;;9.99;100.00
64644;BME280;51056;50.330;7.914;2022-11-15T10:51:24;99996.41;;;10.00;100.00
64644;BME280;51056;50.330;7.914;2022-11-15T10:54:48;99995.69;;;10.13;100.00
64644;BME280;51056;50.330;7.914;2022-11-15T10:58:30;99990.34;;;10.30;100.00
64644;BME280;51056;50.330;7.914;2022-11-15T11:01:45;99984.28;;;10.58;100.00
64644;BME280;51056;50.330;7.914;2022-11-15T11:04:50;99971.31;;;10.57;100.00
64644;BME280;51056;50.330;7.914;2022-11-15T11:08:41;99968.88;;;10.68;100.00
64644;BME280;51056;50.330;7.914;2022-11-15T11:11:44;99963.47;;;10.71;100.00
64644;BME280;51056;50.330;7.914;2022-11-15T11:14:48;99952.16;;;10.70;100.00
64644;BME280;51056;50.330;7.914;2022-11-15T11:20:57;99952.44;;;10.80;100.00
64644;BME280;51056;50.330;7.914;2022-11-15T11:24:10;99951.66;;;10.92;100.00
64644;BME280;51056;50.330;7.914;2022-11-15T11:34:34;99932.16;;;11.25;98.18
64644;BME280;51056;50.330;7.914;2022-11-15T11:45:10;99920.91;;;11.50;95.68
64644;BME280;51056;50.330;7.914;2022-11-15T11:48:51;99911.84;;;11.69;88.05
64644;BME280;51056;50.330;7.914;2022-11-15T11:52:07;99910.66;;;11.87;87.94
64644;BME280;51056;50.330;7.914;2022-11-15T11:55:15;99898.63;;;11.97;87.14
64644;BME280;51056;50.330;7.914;2022-11-15T11:58:23;99894.81;;;12.14;85.64
64644;BME280;51056;50.330;7.914;2022-11-15T12:01:33;99905.31;;;12.01;85.93
64644;BME280;51056;50.330;7.914;2022-11-15T12:04:40;99903.53;;;12.02;85.25
64644;BME280;51056;50.330;7.914;2022-11-15T12:07:48;99899.88;;;12.04;84.60
64644;BME280;51056;50.330;7.914;2022-11-15T12:11:00;99900.28;;;12.11;84.34
64644;BME280;51056;50.330;7.914;2022-11-15T12:17:37;99895.38;;;12.06;83.99
64644;BME280;51056;50.330;7.914;2022-11-15T12:21:24;99884.75;;;12.08;84.02
64644;BME280;51056;50.330;7.914;2022-11-15T12:24:44;99881.63;;;12.16;84.14
64644;BME280;51056;50.330;7.914;2022-11-15T12:27:51;99879.72;;;12.05;84.60
64644;BME280;51056;50.330;7.914;2022-11-15T12:37:33;99867.78;;;12.01;83.95
64644;BME280;51056;50.330;7.914;2022-11-15T12:40:39;99860.22;;;11.96;83.90
64644;BME280;51056;50.330;7.914;2022-11-15T12:47:42;99842.44;;;11.89;83.21
64644;BME280;51056;50.330;7.914;2022-11-15T12:51:04;99856.13;;;11.79;83.65
64644;BME280;51056;50.330;7.914;2022-11-15T12:57:33;99838.63;;;11.80;82.88
64644;BME280;51056;50.330;7.914;2022-11-15T13:00:37;99841.81;;;11.85;83.13
64644;BME280;51056;50.330;7.914;2022-11-15T13:10:42;99827.31;;;11.79;83.69
64644;BME280;51056;50.330;7.914;2022-11-15T13:13:45;99826.09;;;11.85;84.41
64644;BME280;51056;50.330;7.914;2022-11-15T13:16:57;99816.66;;;11.95;83.20
64644;BME280;51056;50.330;7.914;2022-11-15T13:23:18;99801.44;;;12.13;80.34
64644;BME280;51056;50.330;7.914;2022-11-15T13:26:22;99799.88;;;12.10;79.75
64644;BME280;51056;50.330;7.914;2022-11-15T13:29:25;99790.31;;;12.22;79.08
64644;BME280;51056;50.330;7.914;2022-11-15T13:32:31;99787.91;;;12.19;78.36
64644;BME280;51056;50.330;7.914;2022-11-15T13:35:49;99779.66;;;12.13;79.84
64644;BME280;51056;50.330;7.914;2022-11-15T13:38:59;99783.00;;;12.02;80.39
64644;BME280;51056;50.330;7.914;2022-11-15T13:42:03;99782.28;;;12.00;81.67
64644;BME280;51056;50.330;7.914;2022-11-15T13:45:13;99779.34;;;11.92;82.81
64644;BME280;51056;50.330;7.914;2022-11-15T13:48:18;99771.13;;;11.83;81.65
64644;BME280;51056;50.330;7.914;2022-11-15T13:51:46;99761.84;;;11.79;82.40
64644;BME280;51056;50.330;7.914;2022-11-15T13:54:58;99753.97;;;11.79;82.83
64644;BME280;51056;50.330;7.914;2022-11-15T13:58:04;99767.28;;;11.76;83.62
64644;BME280;51056;50.330;7.914;2022-11-15T14:01:15;99754.81;;;11.80;84.41
64644;BME280;51056;50.330;7.914;2022-11-15T14:04:22;99754.72;;;11.81;85.13
64644;BME280;51056;50.330;7.914;2022-11-15T14:07:28;99748.53;;;11.82;84.88
64644;BME280;51056;50.330;7.914;2022-11-15T14:10:36;99748.03;;;11.77;85.21
64644;BME280;51056;50.330;7.914;2022-11-15T14:13:40;99742.47;;;11.69;84.61
64644;BME280;51056;50.330;7.914;2022-11-15T14:16:46;99730.94;;;11.72;84.72
64644;BME280;51056;50.330;7.914;2022-11-15T14:19:57;99726.63;;;11.71;85.77
64644;BME280;51056;50.330;7.914;2022-11-15T14:23:03;99720.28;;;11.62;85.39
64644;BME280;51056;50.330;7.914;2022-11-15T14:26:29;99716.69;;;11.63;85.85
64644;BME280;51056;50.330;7.914;2022-11-15T14:29:33;99712.41;;;11.62;85.99
64644;BME280;51056;50.330;7.914;2022-11-15T14:32:44;99709.81;;;11.62;86.40
64644;BME280;51056;50.330;7.914;2022-11-15T14:35:48;99699.13;;;11.65;87.01
64644;BME280;51056;50.330;7.914;2022-11-15T14:38:52;99697.94;;;11.69;87.70
64644;BME280;51056;50.330;7.914;2022-11-15T14:41:57;99694.81;;;11.64;87.51
64644;BME280;51056;50.330;7.914;2022-11-15T14:45:00;99683.84;;;11.59;87.54
64644;BME280;51056;50.330;7.914;2022-11-15T14:48:04;99679.03;;;11.53;87.35
64644;BME280;51056;50.330;7.914;2022-11-15T14:51:13;99672.53;;;11.58;87.48
64644;BME280;51056;50.330;7.914;2022-11-15T14:54:16;99676.47;;;11.64;88.24
64644;BME280;51056;50.330;7.914;2022-11-15T14:57:20;99675.53;;;11.65;88.92
64644;BME280;51056;50.330;7.914;2022-11-15T15:00:25;99671.97;;;11.66;89.56
64644;BME280;51056;50.330;7.914;2022-11-15T15:03:28;99670.94;;;11.69;89.90
64644;BME280;51056;50.330;7.914;2022-11-15T15:06:31;99655.31;;;11.67;89.69
64644;BME280;51056;50.330;7.914;2022-11-15T15:09:35;99654.28;;;11.57;89.92
64644;BME280;51056;50.330;7.914;2022-11-15T15:12:39;99653.53;;;11.55;90.60
64644;BME280;51056;50.330;7.914;2022-11-15T15:15:43;99649.25;;;11.54;90.57
64644;BME280;51056;50.330;7.914;2022-11-15T15:18:50;99647.41;;;11.43;91.45
64644;BME280;51056;50.330;7.914;2022-11-15T15:21:56;99643.22;;;11.40;92.52
64644;BME280;51056;50.330;7.914;2022-11-15T15:25:01;99640.47;;;11.42;92.41
64644;BME280;51056;50.330;7.914;2022-11-15T15:28:06;99638.63;;;11.31;92.76
64644;BME280;51056;50.330;7.914;2022-11-15T15:31:10;99630.56;;;11.22;93.58
64644;BME280;51056;50.330;7.914;2022-11-15T15:34:17;99625.03;;;11.13;93.87
64644;BME280;51056;50.330;7.914;2022-11-15T15:40:29;99624.94;;;11.15;93.93
64644;BME280;51056;50.330;7.914;2022-11-15T15:43:32;99631.13;;;11.14;94.87
64644;BME280;51056;50.330;7.914;2022-11-15T15:46:36;99636.75;;;11.08;94.82
64644;BME280;51056;50.330;7.914;2022-11-15T15:49:40;99629.00;;;11.06;95.24
64644;BME280;51056;50.330;7.914;2022-11-15T15:52:44;99635.06;;;11.07;95.57
64644;BME280;51056;50.330;7.914;2022-11-15T15:55:47;99631.31;;;11.11;94.53
64644;BME280;51056;50.330;7.914;2022-11-15T15:58:50;99630.50;;;11.10;95.01
64644;BME280;51056;50.330;7.914;2022-11-15T16:01:56;99625.03;;;11.01;94.77
64644;BME280;51056;50.330;7.914;2022-11-15T16:04:59;99627.75;;;10.99;95.82
64644;BME280;51056;50.330;7.914;2022-11-15T16:08:03;99615.72;;;10.97;95.77
64644;BME280;51056;50.330;7.914;2022-11-15T16:11:08;99619.06;;;10.86;95.78
64644;BME280;51056;50.330;7.914;2022-11-15T16:14:13;99616.88;;;10.80;96.99
64644;BME280;51056;50.330;7.914;2022-11-15T16:17:20;99612.06;;;10.74;97.06
64644;BME280;51056;50.330;7.914;2022-11-15T16:20:42;99609.56;;;10.72;97.02
64644;BME280;51056;50.330;7.914;2022-11-15T16:23:47;99603.69;;;10.81;97.10
64644;BME280;51056;50.330;7.914;2022-11-15T16:26:51;99598.66;;;10.78;96.65
64644;BME280;51056;50.330;7.914;2022-11-15T16:29:55;99597.00;;;10.77;97.12
64644;BME280;51056;50.330;7.914;2022-11-15T16:33:01;99588.72;;;10.83;96.46
64644;BME280;51056;50.330;7.914;2022-11-15T16:36:18;99594.78;;;10.71;97.06
64644;BME280;51056;50.330;7.914;2022-11-15T16:39:22;99587.34;;;10.65;97.30
64644;BME280;51056;50.330;7.914;2022-11-15T16:42:26;99587.16;;;10.68;97.93
64644;BME280;51056;50.330;7.914;2022-11-15T16:45:29;99594.38;;;10.77;97.24
64644;BME280;51056;50.330;7.914;2022-11-15T16:48:34;99584.53;;;10.81;97.15
64644;BME280;51056;50.330;7.914;2022-11-15T16:51:41;99584.13;;;10.74;97.03
64644;BME280;51056;50.330;7.914;2022-11-15T16:54:47;99582.88;;;10.67;97.18
64644;BME280;51056;50.330;7.914;2022-11-15T16:57:51;99580.03;;;10.44;98.80
64644;BME280;51056;50.330;7.914;2022-11-15T17:00:55;99582.31;;;10.49;98.72
64644;BME280;51056;50.330;7.914;2022-11-15T17:03:59;99576.81;;;10.54;98.46
64644;BME280;51056;50.330;7.914;2022-11-15T17:07:15;99576.47;;;10.58;98.07
64644;BME280;51056;50.330;7.914;2022-11-15T17:10:20;99567.41;;;10.64;98.18
64644;BME280;51056;50.330;7.914;2022-11-15T17:13:24;99573.56;;;10.63;98.15
64644;BME280;51056;50.330;7.914;2022-11-15T17:16:27;99562.16;;;10.64;97.92
64644;BME280;51056;50.330;7.914;2022-11-15T17:19:31;99565.31;;;10.69;97.29
64644;BME280;51056;50.330;7.914;2022-11-15T17:22:36;99557.25;;;10.59;97.50
64644;BME280;51056;50.330;7.914;2022-11-15T17:25:42;99554.31;;;10.64;97.41
64644;BME280;51056;50.330;7.914;2022-11-15T17:28:48;99561.63;;;10.59;97.77
64644;BME280;51056;50.330;7.914;2022-11-15T17:31:51;99553.59;;;10.62;97.28
64644;BME280;51056;50.330;7.914;2022-11-15T17:34:55;99552.25;;;10.56;97.98
64644;BME280;51056;50.330;7.914;2022-11-15T17:37:58;99556.81;;;10.53;98.12
64644;BME280;51056;50.330;7.914;2022-11-15T17:41:05;99545.94;;;10.59;97.40
64644;BME280;51056;50.330;7.914;2022-11-15T17:44:11;99539.06;;;10.58;97.30
64644;BME280;51056;50.330;7.914;2022-11-15T17:47:15;99535.28;;;10.49;97.86
64644;BME280;51056;50.330;7.914;2022-11-15T17:50:19;99532.78;;;10.47;97.79
64644;BME280;51056;50.330;7.914;2022-11-15T17:53:23;99529.44;;;10.45;98.33
64644;BME280;51056;50.330;7.914;2022-11-15T17:56:27;99523.16;;;10.48;98.10
64644;BME280;51056;50.330;7.914;2022-11-15T17:59:32;99531.53;;;10.53;97.79
64644;BME280;51056;50.330;7.914;2022-11-15T18:02:36;99519.81;;;10.59;97.39
64644;BME280;51056;50.330;7.914;2022-11-15T18:05:40;99519.09;;;10.57;97.68
64644;BME280;51056;50.330;7.914;2022-11-15T18:08:49;99515.19;;;10.50;97.52
64644;BME280;51056;50.330;7.914;2022-11-15T18:11:53;99514.28;;;10.38;98.26
64644;BME280;51056;50.330;7.914;2022-11-15T18:14:57;99518.47;;;10.40;98.60
64644;BME280;51056;50.330;7.914;2022-11-15T18:18:02;99512.28;;;10.41;98.34
64644;BME280;51056;50.330;7.914;2022-11-15T18:21:12;99514.56;;;10.33;98.78
64644;BME280;51056;50.330;7.914;2022-11-15T18:24:15;99505.91;;;10.33;98.77
64644;BME280;51056;50.330;7.914;2022-11-15T18:27:19;99504.25;;;10.44;98.56
64644;BME280;51056;50.330;7.914;2022-11-15T18:30:23;99498.28;;;10.42;98.32
64644;BME280;51056;50.330;7.914;2022-11-15T18:33:27;99504.94;;;10.34;99.21
64644;BME280;51056;50.330;7.914;2022-11-15T18:36:32;99495.88;;;10.39;98.79
64644;BME280;51056;50.330;7.914;2022-11-15T18:39:35;99500.38;;;10.37;98.36
64644;BME280;51056;50.330;7.914;2022-11-15T18:42:39;99494.63;;;10.45;98.18
64644;BME280;51056;50.330;7.914;2022-11-15T18:45:43;99494.19;;;10.51;97.87
64644;BME280;51056;50.330;7.914;2022-11-15T18:48:47;99499.53;;;10.50;97.50
64644;BME280;51056;50.330;7.914;2022-11-15T18:51:54;99491.19;;;10.44;97.61
64644;BME280;51056;50.330;7.914;2022-11-15T18:54:58;99490.34;;;10.44;97.61
64644;BME280;51056;50.330;7.914;2022-11-15T18:58:02;99489.19;;;10.48;97.62
64644;BME280;51056;50.330;7.914;2022-11-15T19:04:16;99474.75;;;10.42;97.85
64644;BME280;51056;50.330;7.914;2022-11-15T19:07:24;99480.31;;;10.38;98.45
64644;BME280;51056;50.330;7.914;2022-11-15T19:10:27;99474.47;;;10.34;98.64
64644;BME280;51056;50.330;7.914;2022-11-15T19:13:30;99471.72;;;10.36;99.14
64644;BME280;51056;50.330;7.914;2022-11-15T19:16:38;99470.97;;;10.34;98.89
64644;BME280;51056;50.330;7.914;2022-11-15T19:19:45;99468.28;;;10.35;98.64
64644;BME280;51056;50.330;7.914;2022-11-15T19:22:50;99471.00;;;10.46;98.11
64644;BME280;51056;50.330;7.914;2022-11-15T19:25:54;99467.88;;;10.41;98.17
64644;BME280;51056;50.330;7.914;2022-11-15T19:29:00;99462.53;;;10.30;98.53
64644;BME280;51056;50.330;7.914;2022-11-15T19:32:04;99458.03;;;10.32;98.73
64644;BME280;51056;50.330;7.914;2022-11-15T19:35:09;99454.38;;;10.35;98.31
64644;BME280;51056;50.330;7.914;2022-11-15T19:38:14;99451.78;;;10.35;98.82
64644;BME280;51056;50.330;7.914;2022-11-15T19:41:20;99444.97;;;10.32;98.73
64644;BME280;51056;50.330;7.914;2022-11-15T19:44:38;99454.81;;;10.29;99.40
64644;BME280;51056;50.330;7.914;2022-11-15T19:47:42;99449.97;;;10.22;99.47
64644;BME280;51056;50.330;7.914;2022-11-15T19:50:45;99453.59;;;10.20;100.00
64644;BME280;51056;50.330;7.914;2022-11-15T19:53:53;99445.78;;;10.20;100.00
64644;BME280;51056;50.330;7.914;2022-11-15T19:56:59;99445.69;;;10.21;100.00
64644;BME280;51056;50.330;7.914;2022-11-15T20:00:05;99451.66;;;10.36;99.34
64644;BME280;51056;50.330;7.914;2022-11-15T20:03:09;99437.88;;;10.34;99.08
64644;BME280;51056;50.330;7.914;2022-11-15T20:06:16;99438.09;;;10.31;99.53
64644;BME280;51056;50.330;7.914;2022-11-15T20:09:20;99437.72;;;10.23;99.96